Time;durP1;ratioP1;P1;durP2;ratioP2;P2;SDS_P1;SDS_P2;PMS_P1;PMS_P2;Temp;Humidity;BMP_temperature;BMP_pressure;BME280_temperature;BME280_humidity;BME280_pressure;Samples;Min_cycle;Max_cycle;Signal;HPM_P1;HPM_P2
2023/05/01 00:01:13;;;;;;;4.97;4.50;;;;;;;8.84;100.00;96176.59;5011113;28;105423;-60
2023/05/01 00:04:20;;;;;;;4.70;4.40;;;;;;;8.81;100.00;96172.59;5012568;28;101829;-60
2023/05/01 00:06:48;;;;;;;4.67;4.27;;;;;;;8.76;100.00;96169.06;5011541;28;105590;-60
2023/05/01 00:09:15;;;;;;;4.90;4.20;;;;;;;8.66;100.00;96166.25;5010871;28;105176;-60
2023/05/01 00:11:42;;;;;;;4.87;4.47;;;;;;;8.41;100.00;96164.03;5015032;28;101870;-62
2023/05/01 00:14:39;;;;;;;5.30;4.80;;;;;;;8.48;100.00;96163.88;4990338;28;105375;-62
2023/05/01 00:17:06;;;;;;;5.30;4.63;;;;;;;8.60;100.00;96175.19;5030626;28;102097;-63
2023/05/01 00:19:34;;;;;;;6.03;5.00;;;;;;;8.55;100.00;96170.63;5031438;28;105564;-62
2023/05/01 00:22:02;;;;;;;6.33;5.20;;;;;;;8.53;100.00;96166.59;5028819;28;105228;-62
2023/05/01 00:27:51;;;;;;;6.23;5.73;;;;;;;8.47;100.00;96159.63;5031023;28;105482;-62
2023/05/01 00:30:18;;;;;;;6.50;5.80;;;;;;;8.45;100.00;96159.84;5030327;28;105089;-62
2023/05/01 00:32:45;;;;;;;6.20;5.60;;;;;;;8.38;100.00;96158.41;5023430;28;101846;-62
2023/05/01 00:36:06;;;;;;;5.30;4.90;;;;;;;8.32;100.00;96154.91;5014505;28;104830;-62
2023/05/01 00:38:34;;;;;;;4.47;4.10;;;;;;;8.22;100.00;96149.44;5011256;28;102361;-62
2023/05/01 00:41:01;;;;;;;5.40;4.40;;;;;;;8.27;100.00;96146.88;5010700;28;105457;-62
2023/05/01 00:46:50;;;;;;;5.00;4.50;;;;;;;8.20;100.00;96138.28;5028331;27;101862;-62
2023/05/01 00:49:17;;;;;;;5.10;4.60;;;;;;;8.15;100.00;96137.38;5030183;28;105426;-62
2023/05/01 00:51:49;;;;;;;5.50;5.00;;;;;;;8.07;100.00;96141.22;5010199;28;104924;-63
2023/05/01 00:54:35;;;;;;;5.07;4.67;;;;;;;7.96;100.00;96133.38;5010624;28;102028;-62
2023/05/01 00:57:02;;;;;;;6.53;5.40;;;;;;;8.06;100.00;96133.50;5010758;28;105142;-62
2023/05/01 00:59:29;;;;;;;5.83;5.30;;;;;;;8.01;100.00;96125.50;5013532;28;104931;-62
2023/05/01 01:01:58;;;;;;;4.97;4.47;;;;;;;7.88;100.00;96129.25;5010847;28;105463;-62
2023/05/01 01:04:31;;;;;;;5.50;5.00;;;;;;;7.85;100.00;96127.09;4990106;28;105029;-62
2023/05/01 01:07:08;;;;;;;5.60;5.07;;;;;;;7.89;100.00;96130.03;5010108;28;102005;-62
2023/05/01 01:09:46;;;;;;;5.43;4.93;;;;;;;7.92;100.00;96125.06;5010509;28;105236;-62
2023/05/01 01:12:20;;;;;;;5.67;5.17;;;;;;;7.96;100.00;96122.78;4992613;28;105346;-62
2023/05/01 01:14:55;;;;;;;5.53;5.03;;;;;;;7.94;100.00;96114.25;5010402;28;101838;-62
2023/05/01 01:17:30;;;;;;;5.37;4.90;;;;;;;7.88;100.00;96115.22;5011600;28;105448;-62
2023/05/01 01:20:19;;;;;;;5.10;4.60;;;;;;;7.90;100.00;96124.53;5012112;28;105418;-62
2023/05/01 01:22:51;;;;;;;5.17;4.67;;;;;;;7.64;100.00;96113.75;5027025;28;101771;-62
2023/05/01 01:26:06;;;;;;;6.03;5.03;;;;;;;7.65;100.00;96110.06;5010869;28;105189;-62
2023/05/01 01:29:02;;;;;;;5.30;4.80;;;;;;;7.61;100.00;96104.44;5007818;28;101951;-63
2023/05/01 01:31:35;;;;;;;4.93;4.53;;;;;;;7.64;100.00;96103.16;5027034;28;104081;-62
2023/05/01 01:37:32;;;;;;;5.57;5.07;;;;;;;7.41;100.00;96106.72;5011176;28;101986;-62
2023/05/01 01:40:05;;;;;;;5.47;4.90;;;;;;;7.42;100.00;96110.19;5010000;28;105139;-62
2023/05/01 01:42:37;;;;;;;5.50;5.03;;;;;;;7.38;100.00;96104.56;5021205;28;105394;-62
2023/05/01 01:45:21;;;;;;;6.17;5.20;;;;;;;7.46;100.00;96108.66;5030214;28;101842;-62
2023/05/01 01:47:51;;;;;;;5.17;4.77;;;;;;;7.46;100.00;96104.16;5018491;28;104788;-62
2023/05/01 01:50:20;;;;;;;5.83;5.33;;;;;;;7.49;100.00;96101.06;5009877;28;101973;-62
2023/05/01 01:52:51;;;;;;;5.67;5.17;;;;;;;7.33;100.00;96096.53;5010723;28;104912;-62
2023/05/01 01:55:44;;;;;;;5.93;5.43;;;;;;;7.41;100.00;96106.72;5009290;28;105052;-62
2023/05/01 01:58:15;;;;;;;5.43;4.90;;;;;;;7.31;100.00;96103.09;5010593;28;101950;-62
2023/05/01 02:00:45;;;;;;;5.03;4.63;;;;;;;7.12;100.00;96102.47;5009954;28;104784;-62
2023/05/01 02:03:35;;;;;;;5.37;4.87;;;;;;;7.20;100.00;96099.44;5025271;28;105723;-62
2023/05/01 02:06:06;;;;;;;6.27;5.77;;;;;;;7.16;100.00;96097.53;5046073;27;101956;-62
2023/05/01 02:08:37;;;;;;;6.03;5.47;;;;;;;7.22;100.00;96100.03;5020375;28;105695;-62
2023/05/01 02:11:05;;;;;;;6.20;5.60;;;;;;;7.30;100.00;96097.00;5012368;28;104242;-62
2023/05/01 02:13:55;;;;;;;6.67;6.07;;;;;;;7.29;100.00;96091.94;5023093;28;101767;-62
2023/05/01 02:16:24;;;;;;;5.97;5.40;;;;;;;7.16;100.00;96093.06;5027419;28;105159;-62
2023/05/01 02:18:53;;;;;;;5.77;5.27;;;;;;;7.19;100.00;96086.50;5029718;28;101919;-62
2023/05/01 02:21:21;;;;;;;5.33;4.93;;;;;;;7.09;100.00;96081.78;5026948;28;103671;-62
2023/05/01 02:24:29;;;;;;;5.53;5.03;;;;;;;7.04;100.00;96080.91;5008733;28;105467;-62
2023/05/01 02:27:05;;;;;;;6.23;5.20;;;;;;;7.10;100.00;96077.31;5010195;28;101970;-62
2023/05/01 02:29:32;;;;;;;6.30;5.70;;;;;;;6.95;100.00;96077.03;5009002;28;105129;-62
2023/05/01 02:32:00;;;;;;;6.07;4.90;;;;;;;6.84;100.00;96078.69;5019577;28;105869;-63
2023/05/01 02:37:50;;;;;;;4.70;4.30;;;;;;;6.89;100.00;96070.03;5020129;28;104609;-62
2023/05/01 02:40:17;;;;;;;5.77;4.90;;;;;;;6.87;100.00;96064.97;5029502;28;102298;-62
2023/05/01 02:42:48;;;;;;;6.13;4.90;;;;;;;6.91;100.00;96066.13;5026987;28;105216;-62
2023/05/01 02:45:35;;;;;;;6.07;5.47;;;;;;;6.92;100.00;96066.94;5025566;28;105154;-62
2023/05/01 02:48:05;;;;;;;5.50;5.00;;;;;;;6.74;100.00;96064.44;5009132;28;101790;-62
2023/05/01 02:50:33;;;;;;;5.10;4.60;;;;;;;6.69;100.00;96062.50;5014278;28;103177;-62
2023/05/01 02:53:41;;;;;;;5.70;5.10;;;;;;;6.65;100.00;96055.28;5008232;28;105455;-62
2023/05/01 02:56:17;;;;;;;4.93;4.50;;;;;;;6.61;100.00;96065.50;5024019;28;102250;-62
2023/05/01 02:58:48;;;;;;;5.23;4.70;;;;;;;6.55;100.00;96055.09;5027123;28;105663;-62
2023/05/01 03:01:15;;;;;;;5.23;4.73;;;;;;;6.59;100.00;96056.19;5012369;28;101885;-62
2023/05/01 03:03:43;;;;;;;5.40;4.90;;;;;;;6.56;100.00;96051.41;5028052;28;105520;-62
2023/05/01 03:06:09;;;;;;;5.00;4.60;;;;;;;6.55;100.00;96053.22;5018424;28;105379;-62
2023/05/01 03:08:36;;;;;;;5.30;4.90;;;;;;;6.41;100.00;96053.72;5027362;27;102015;-62
2023/05/01 03:11:05;;;;;;;5.30;4.80;;;;;;;6.47;100.00;96048.31;5026816;28;105674;-62
2023/05/01 03:13:35;;;;;;;5.63;5.13;;;;;;;6.33;100.00;96048.81;5011741;28;105771;-62
2023/05/01 03:16:04;;;;;;;5.17;4.67;;;;;;;6.23;100.00;96051.22;5012410;28;101778;-62
2023/05/01 03:18:31;;;;;;;5.87;5.30;;;;;;;6.31;100.00;96043.75;5015078;28;105733;-62
2023/05/01 03:20:58;;;;;;;10.07;5.23;;;;;;;6.35;100.00;96052.81;5015849;28;101920;-62
2023/05/01 03:23:42;;;;;;;5.30;4.90;;;;;;;6.15;100.00;96035.72;5023648;28;104799;-62
2023/05/01 03:26:09;;;;;;;5.97;4.73;;;;;;;6.36;100.00;96048.31;5029980;28;105532;-62
2023/05/01 03:28:36;;;;;;;6.87;5.23;;;;;;;6.40;100.00;96044.19;5032027;28;101885;-62
2023/05/01 03:31:05;;;;;;;5.37;4.97;;;;;;;6.31;100.00;96040.28;5030441;28;105566;-62
2023/05/01 03:36:56;;;;;;;6.43;5.83;;;;;;;6.21;100.00;96042.75;5012078;28;101900;-62
2023/05/01 03:39:26;;;;;;;7.27;6.17;;;;;;;6.27;100.00;96045.25;5012043;28;103458;-62
2023/05/01 03:42:30;;;;;;;6.37;5.77;;;;;;;6.29;100.00;96037.91;5033328;28;103575;-62
2023/05/01 03:45:37;;;;;;;6.63;6.00;;;;;;;6.35;100.00;96033.53;4999464;28;104977;-62
2023/05/01 03:48:06;;;;;;;7.17;6.10;;;;;;;6.45;100.00;96039.03;5031015;28;105610;-62
2023/05/01 03:50:33;;;;;;;6.63;5.93;;;;;;;6.51;100.00;96035.44;5031819;28;102010;-62
2023/05/01 03:53:07;;;;;;;7.50;6.63;;;;;;;6.49;100.00;96030.38;5027827;28;105153;-62
2023/05/01 03:55:34;;;;;;;6.60;6.00;;;;;;;6.51;100.00;96035.44;5011209;28;104980;-62
2023/05/01 03:58:01;;;;;;;6.40;5.90;;;;;;;6.47;100.00;96032.47;5012732;28;102014;-62
2023/05/01 04:00:28;;;;;;;6.80;6.20;;;;;;;6.51;100.00;96027.53;5011697;28;104975;-62
2023/05/01 04:02:56;;;;;;;7.00;5.70;;;;;;;6.52;100.00;96027.28;5013476;28;105515;-62
2023/05/01 04:05:27;;;;;;;6.00;5.47;;;;;;;6.52;100.00;96032.56;5035038;28;102051;-62
2023/05/01 04:07:59;;;;;;;6.27;5.67;;;;;;;6.56;100.00;96038.19;5030773;28;103994;-62
2023/05/01 04:10:27;;;;;;;6.20;5.50;;;;;;;6.47;100.00;96035.13;5031530;28;101931;-62
2023/05/01 04:12:59;;;;;;;5.90;5.40;;;;;;;6.52;100.00;96035.22;5027623;28;105376;-62
2023/05/01 04:15:25;;;;;;;6.27;5.77;;;;;;;6.55;100.00;96037.38;5010717;28;105288;-62
2023/05/01 04:17:54;;;;;;;6.17;5.57;;;;;;;6.56;100.00;96035.53;5012183;28;101902;-62
2023/05/01 04:20:22;;;;;;;6.33;5.83;;;;;;;6.37;100.00;96037.53;5011316;28;105278;-62
2023/05/01 04:22:50;;;;;;;5.33;4.93;;;;;;;6.27;100.00;96041.81;5014907;28;105366;-62
2023/05/01 04:25:38;;;;;;;5.40;5.00;;;;;;;6.28;100.00;96043.41;5029891;28;101923;-62
2023/05/01 04:28:12;;;;;;;5.57;5.07;;;;;;;6.35;100.00;96041.44;5013783;28;104563;-62
2023/05/01 04:30:40;;;;;;;5.70;5.27;;;;;;;6.39;100.00;96040.75;5012271;28;101963;-62
2023/05/01 04:33:10;;;;;;;6.53;6.03;;;;;;;6.39;100.00;96042.59;5018912;28;101819;-62
2023/05/01 04:35:40;;;;;;;6.17;5.60;;;;;;;6.56;100.00;96043.47;5030368;28;105101;-62
2023/05/01 04:38:09;;;;;;;7.97;5.70;;;;;;;6.65;100.00;96042.88;5030571;28;102171;-62
2023/05/01 04:40:37;;;;;;;6.10;5.60;;;;;;;6.72;100.00;96045.38;5030658;28;103664;-62
2023/05/01 04:43:04;;;;;;;7.20;6.33;;;;;;;6.71;100.00;96043.78;5023966;28;104926;-62
2023/05/01 04:45:32;;;;;;;6.83;6.13;;;;;;;6.90;100.00;96043.38;5011973;28;102104;-62
2023/05/01 04:47:59;;;;;;;6.57;5.87;;;;;;;6.89;100.00;96047.06;5013859;28;105385;-62
2023/05/01 04:50:26;;;;;;;6.47;5.77;;;;;;;6.96;100.00;96053.00;5012273;28;101871;-62
2023/05/01 04:52:53;;;;;;;6.37;5.77;;;;;;;7.07;100.00;96056.63;5015026;28;105424;-62
2023/05/01 04:55:24;;;;;;;6.43;5.90;;;;;;;7.08;100.00;96060.88;5030436;28;104435;-62
2023/05/01 04:58:04;;;;;;;6.27;5.67;;;;;;;7.23;100.00;96055.88;5030555;28;101875;-62
2023/05/01 05:00:33;;;;;;;6.37;5.80;;;;;;;7.23;100.00;96058.50;5030911;28;105083;-62
2023/05/01 05:03:01;;;;;;;6.93;6.23;;;;;;;7.35;100.00;96056.59;5024616;28;104866;-62
2023/05/01 05:05:28;;;;;;;6.43;5.83;;;;;;;7.55;100.00;96054.31;5019617;28;102193;-62
2023/05/01 05:07:55;;;;;;;7.63;6.83;;;;;;;7.65;100.00;96051.84;5025856;28;105247;-62
2023/05/01 05:10:36;;;;;;;7.60;6.90;;;;;;;7.83;100.00;96054.25;5013299;28;105551;-62
2023/05/01 05:13:28;;;;;;;7.43;6.73;;;;;;;8.00;100.00;96053.19;5017927;28;105215;-62
2023/05/01 05:16:11;;;;;;;8.20;7.10;;;;;;;8.13;100.00;96052.84;5029647;28;105252;-62
2023/05/01 05:18:38;;;;;;;10.50;8.63;;;;;;;8.36;100.00;96049.25;5030573;28;101874;-62
2023/05/01 05:21:05;;;;;;;8.63;7.90;;;;;;;8.47;100.00;96043.84;5019857;28;103953;-62
2023/05/01 05:23:37;;;;;;;7.80;7.10;;;;;;;8.65;100.00;96046.19;5010584;28;105416;-62
2023/05/01 05:26:07;;;;;;;9.10;8.20;;;;;;;8.80;100.00;96045.56;5010183;28;101896;-62
2023/05/01 05:28:34;;;;;;;8.80;8.00;;;;;;;8.94;100.00;96049.47;5010066;28;105221;-62
2023/05/01 05:31:02;;;;;;;8.97;7.47;;;;;;;9.04;100.00;96041.59;5016018;28;105517;-62
2023/05/01 05:34:00;;;;;;;8.17;7.37;;;;;;;9.18;100.00;96048.13;5023086;27;101962;-62
2023/05/01 05:36:27;;;;;;;8.47;7.67;;;;;;;9.23;100.00;96050.84;5010651;28;105801;-62
2023/05/01 05:38:55;;;;;;;9.47;8.57;;;;;;;9.17;100.00;96052.63;5010133;28;101950;-62
2023/05/01 05:41:24;;;;;;;9.30;8.40;;;;;;;9.27;100.00;96046.63;5011198;28;104885;-62
2023/05/01 05:44:17;;;;;;;9.30;8.30;;;;;;;9.23;100.00;96051.66;5022373;28;104407;-62
2023/05/01 05:46:45;;;;;;;8.90;8.00;;;;;;;9.24;100.00;96052.44;5030188;28;101655;-62
2023/05/01 05:49:15;;;;;;;9.13;8.17;;;;;;;9.30;100.00;96051.44;5013217;28;103556;-62
2023/05/01 05:51:42;;;;;;;8.73;7.93;;;;;;;9.28;100.00;96053.53;5009213;28;105310;-62
2023/05/01 05:54:29;;;;;;;9.17;7.50;;;;;;;9.04;100.00;96052.19;5025130;28;101960;-62
2023/05/01 05:56:57;;;;;;;7.77;6.97;;;;;;;9.09;100.00;96052.25;5014932;28;105710;-62
2023/05/01 05:59:25;;;;;;;7.67;6.97;;;;;;;9.35;100.00;96046.97;5029942;28;101863;-62
2023/05/01 06:01:52;;;;;;;8.87;7.33;;;;;;;9.62;100.00;96049.63;5014596;28;105205;-62
2023/05/01 06:04:22;;;;;;;8.40;7.70;;;;;;;9.70;100.00;96057.91;5026421;28;105480;-62
2023/05/01 06:06:49;;;;;;;8.37;7.57;;;;;;;10.05;100.00;96050.28;5027904;28;101810;-62
2023/05/01 06:09:17;;;;;;;10.57;7.20;;;;;;;10.19;100.00;96051.44;5029374;28;105338;-62
2023/05/01 06:11:45;;;;;;;7.77;6.97;;;;;;;10.30;100.00;96054.97;4988875;28;105554;-62
2023/05/01 06:14:25;;;;;;;6.93;6.33;;;;;;;10.38;100.00;96049.16;5007637;28;101971;-62
2023/05/01 06:16:52;;;;;;;6.73;6.03;;;;;;;10.42;100.00;96050.25;5009522;28;103897;-62
2023/05/01 06:19:19;;;;;;;7.23;6.40;;;;;;;10.41;100.00;96048.66;5012295;28;104285;-62
2023/05/01 06:21:51;;;;;;;6.70;6.20;;;;;;;10.37;100.00;96053.66;5009557;28;105466;-62
2023/05/01 06:24:26;;;;;;;7.10;6.50;;;;;;;10.32;100.00;96048.34;5009016;28;104223;-62
2023/05/01 06:26:57;;;;;;;6.90;6.20;;;;;;;10.45;100.00;96047.88;5009130;28;102196;-63
2023/05/01 06:29:25;;;;;;;8.73;7.93;;;;;;;10.68;100.00;96044.00;5009275;28;105116;-62
2023/05/01 06:31:53;;;;;;;7.00;6.40;;;;;;;10.69;100.00;96045.59;5009510;28;105995;-62
2023/05/01 06:34:20;;;;;;;8.33;7.43;;;;;;;11.00;100.00;96045.47;5026299;28;102042;-62
2023/05/01 06:36:52;;;;;;;14.37;12.87;;;;;;;10.86;100.00;96046.22;5029517;28;105170;-62
2023/05/01 06:39:19;;;;;;;12.13;10.80;;;;;;;11.04;100.00;96032.44;5008501;28;104218;-62
2023/05/01 06:41:46;;;;;;;10.97;9.97;;;;;;;11.05;100.00;96039.34;5026885;28;102111;-62
2023/05/01 06:44:40;;;;;;;9.80;8.90;;;;;;;11.11;100.00;96043.63;5009697;28;105117;-62
2023/05/01 06:47:07;;;;;;;10.53;9.20;;;;;;;11.39;100.00;96043.19;5010218;28;101825;-61
2023/05/01 06:49:34;;;;;;;10.43;9.40;;;;;;;11.64;100.00;96045.91;5010457;28;102879;-61
2023/05/01 06:52:01;;;;;;;9.83;9.03;;;;;;;11.88;100.00;96041.69;5026367;28;105004;-61
2023/05/01 06:55:18;;;;;;;10.00;9.07;;;;;;;12.22;100.00;96040.81;5028662;28;102356;-61
2023/05/01 06:57:45;;;;;;;9.87;8.87;;;;;;;12.41;100.00;96044.53;5028781;28;104928;-61
2023/05/01 07:00:16;;;;;;;10.67;9.70;;;;;;;12.28;100.00;96044.31;5024345;28;105330;-61
2023/05/01 07:02:44;;;;;;;10.03;9.03;;;;;;;12.51;100.00;96047.19;4997629;28;101894;-61
2023/05/01 07:05:56;;;;;;;7.53;6.83;;;;;;;12.44;100.00;96043.22;5009357;28;102730;-61
2023/05/01 07:08:23;;;;;;;7.57;6.87;;;;;;;12.78;100.00;96045.00;5017600;28;102034;-61
2023/05/01 07:10:50;;;;;;;7.53;6.90;;;;;;;12.93;100.00;96054.81;5017834;27;102397;-61
2023/05/01 07:13:52;;;;;;;7.10;6.40;;;;;;;12.63;100.00;96047.69;5016021;28;105428;-61
2023/05/01 07:16:20;;;;;;;7.13;6.53;;;;;;;12.94;100.00;96045.72;5030170;27;101812;-61
2023/05/01 07:18:47;;;;;;;6.00;5.50;;;;;;;12.99;100.00;96043.88;5016117;28;103752;-61
2023/05/01 07:21:14;;;;;;;6.27;5.67;;;;;;;13.04;100.00;96037.72;5007645;28;106679;-61
2023/05/01 07:23:55;;;;;;;5.90;5.40;;;;;;;13.00;100.00;96032.13;5026751;28;101885;-61
2023/05/01 07:26:22;;;;;;;5.30;4.77;;;;;;;13.15;100.00;96042.75;5033064;27;102323;-61
2023/05/01 07:28:49;;;;;;;5.60;5.10;;;;;;;13.20;100.00;96036.56;5018093;27;101995;-61
2023/05/01 07:31:16;;;;;;;6.20;5.63;;;;;;;13.24;100.00;96040.28;5026400;28;102815;-61
2023/05/01 07:37:07;;;;;;;7.03;6.23;;;;;;;12.71;100.00;96044.47;5010883;27;101708;-61
2023/05/01 07:39:33;;;;;;;7.70;7.00;;;;;;;12.76;100.00;96041.00;5009538;28;102304;-61
2023/05/01 07:42:00;;;;;;;7.60;6.90;;;;;;;12.74;100.00;96043.13;5009464;27;103031;-61
2023/05/01 07:44:32;;;;;;;6.87;6.27;;;;;;;12.81;100.00;96043.66;5027490;28;102287;-61
2023/05/01 07:47:03;;;;;;;8.67;6.90;;;;;;;12.92;100.00;96045.22;5028679;28;105714;-61
2023/05/01 07:49:30;;;;;;;6.47;5.87;;;;;;;13.03;100.00;96036.13;5014265;27;102607;-61
2023/05/01 07:51:57;;;;;;;6.40;5.80;;;;;;;13.08;100.00;96038.78;5028434;28;101832;-61
2023/05/01 07:54:48;;;;;;;6.60;6.00;;;;;;;13.59;100.00;96040.88;5002566;27;103630;-61
2023/05/01 07:57:15;;;;;;;6.30;5.70;;;;;;;13.60;100.00;96047.00;4995186;28;101870;-61
2023/05/01 07:59:42;;;;;;;6.30;5.70;;;;;;;13.42;100.00;96042.31;5005507;28;105305;-61
2023/05/01 08:02:09;;;;;;;6.13;5.63;;;;;;;13.41;100.00;96041.50;5002293;28;105282;-61
2023/05/01 08:04:44;;;;;;;6.63;5.80;;;;;;;13.39;100.00;96040.19;5009478;28;102725;-61
2023/05/01 08:07:11;;;;;;;6.53;6.00;;;;;;;13.73;100.00;96047.19;4994515;28;105243;-61
2023/05/01 08:09:38;;;;;;;6.60;6.00;;;;;;;13.90;100.00;96044.13;4998811;28;105649;-61
2023/05/01 08:12:06;;;;;;;6.40;5.80;;;;;;;14.37;100.00;96049.63;5003478;28;103615;-61
2023/05/01 08:14:50;;;;;;;5.57;5.07;;;;;;;14.37;100.00;96049.63;5023451;28;102874;-61
2023/05/01 08:17:17;;;;;;;6.37;5.87;;;;;;;14.36;100.00;96045.38;5013025;28;102319;-61
2023/05/01 08:19:44;;;;;;;6.13;5.53;;;;;;;14.56;100.00;96039.81;5011192;28;105433;-61
2023/05/01 08:22:11;;;;;;;6.90;6.13;;;;;;;14.93;100.00;96046.09;5012705;28;105212;-61
2023/05/01 08:24:45;;;;;;;6.03;5.53;;;;;;;15.08;100.00;96047.78;5008177;28;102936;-61
2023/05/01 08:27:14;;;;;;;6.63;6.13;;;;;;;15.05;100.00;96051.84;4996370;28;105252;-61
2023/05/01 08:29:41;;;;;;;7.20;6.50;;;;;;;15.04;100.00;96041.44;5015133;28;102628;-61
2023/05/01 08:32:08;;;;;;;7.30;6.00;;;;;;;14.93;100.00;96051.44;5011813;28;101929;-61
2023/05/01 08:34:50;;;;;;;6.43;5.93;;;;;;;14.81;100.00;96044.88;5013929;28;104999;-62
2023/05/01 08:37:18;;;;;;;6.10;5.60;;;;;;;15.00;100.00;96045.75;5012079;28;101948;-62
2023/05/01 08:39:45;;;;;;;7.53;5.63;;;;;;;15.38;100.00;96047.44;5010555;28;105473;-62
2023/05/01 08:42:13;;;;;;;5.50;5.10;;;;;;;15.17;100.00;96049.56;5007177;28;105170;-62
2023/05/01 08:44:58;;;;;;;5.20;4.80;;;;;;;15.33;100.00;96052.88;5002973;28;101993;-62
2023/05/01 08:47:27;;;;;;;5.57;5.07;;;;;;;15.75;100.00;96050.16;5013128;28;101851;-62
2023/05/01 08:49:55;;;;;;;5.17;4.70;;;;;;;15.13;100.00;96050.41;5010083;28;105486;-62
2023/05/01 08:52:22;;;;;;;5.13;4.67;;;;;;;15.39;100.00;96049.03;5022111;28;101950;-62
2023/05/01 08:55:11;;;;;;;5.03;4.63;;;;;;;15.62;100.00;96048.97;5026069;28;105174;-62
2023/05/01 08:57:44;;;;;;;5.00;4.60;;;;;;;15.47;100.00;96054.53;5006633;28;102670;-62
2023/05/01 09:00:17;;;;;;;4.23;3.93;;;;;;;15.55;100.00;96058.47;5012316;28;105416;-62
2023/05/01 09:02:46;;;;;;;4.47;4.17;;;;;;;15.22;100.00;96054.88;5030122;28;104728;-62
2023/05/01 09:05:52;;;;;;;4.77;4.23;;;;;;;15.72;100.00;96050.72;5030641;28;101765;-62
2023/05/01 09:08:19;;;;;;;5.57;4.60;;;;;;;15.93;100.00;96052.00;5011173;28;103701;-60
2023/05/01 09:10:48;;;;;;;4.40;4.10;;;;;;;15.88;100.00;96052.88;5010172;28;105417;-60
2023/05/01 09:13:19;;;;;;;4.53;4.13;;;;;;;15.17;100.00;96051.44;5029277;28;103612;-60
2023/05/01 09:15:46;;;;;;;5.53;4.70;;;;;;;15.47;100.00;96053.75;5029920;28;105000;-60
2023/05/01 09:18:13;;;;;;;4.80;4.40;;;;;;;15.36;100.00;96049.63;5017263;27;102782;-60
2023/05/01 09:20:40;;;;;;;4.50;4.10;;;;;;;15.38;100.00;96050.91;5022993;28;102615;-60
2023/05/01 09:23:24;;;;;;;4.67;4.27;;;;;;;15.32;100.00;96048.56;5028905;28;105637;-60
2023/05/01 09:25:52;;;;;;;4.07;3.77;;;;;;;15.38;100.00;96048.22;5030191;28;102096;-60
2023/05/01 09:28:40;;;;;;;4.80;4.40;;;;;;;16.09;100.00;96042.63;5011724;28;104530;-60
2023/05/01 09:31:21;;;;;;;4.87;4.37;;;;;;;15.59;100.00;96051.44;5007525;28;106096;-60
2023/05/01 09:37:13;;;;;;;4.77;4.47;;;;;;;15.27;100.00;96041.38;5011907;28;102973;-60
2023/05/01 09:39:40;;;;;;;4.47;4.17;;;;;;;15.44;100.00;96054.34;5010648;28;102946;-60
2023/05/01 09:42:08;;;;;;;4.80;4.40;;;;;;;15.59;100.00;96048.78;5016045;28;101904;-60
2023/05/01 09:45:25;;;;;;;4.60;4.20;;;;;;;15.90;100.00;96049.91;5031032;28;103251;-60
2023/05/01 09:48:09;;;;;;;4.87;4.30;;;;;;;15.52;100.00;96048.31;5029594;28;102270;-60
2023/05/01 09:50:36;;;;;;;4.57;4.23;;;;;;;15.44;100.00;96048.97;5031712;27;102406;-60
2023/05/01 09:53:36;;;;;;;6.70;4.60;;;;;;;15.70;100.00;96047.53;5018926;28;105045;-60
2023/05/01 09:56:03;;;;;;;4.37;4.03;;;;;;;15.51;100.00;96046.72;5010189;28;101813;-60
2023/05/01 09:58:30;;;;;;;4.10;3.73;;;;;;;15.72;100.00;96046.16;5024823;28;102318;-60
2023/05/01 10:00:57;;;;;;;4.07;3.77;;;;;;;15.79;100.00;96045.78;5029411;28;105351;-60
2023/05/01 10:03:31;;;;;;;4.90;4.40;;;;;;;15.56;100.00;96043.97;5016729;28;102034;-60
2023/05/01 10:06:00;;;;;;;4.70;4.30;;;;;;;15.66;100.00;96046.50;5012556;28;105563;-60
2023/05/01 10:08:43;;;;;;;4.07;3.77;;;;;;;15.44;100.00;96051.66;5009877;28;102006;-60
2023/05/01 10:11:10;;;;;;;4.17;3.87;;;;;;;15.54;100.00;96048.84;5024875;28;105150;-60
2023/05/01 10:14:37;;;;;;;4.17;3.87;;;;;;;15.66;100.00;96049.19;5014151;28;105536;-60
2023/05/01 10:17:18;;;;;;;4.30;4.00;;;;;;;15.89;100.00;96053.66;5009785;28;101701;-60
2023/05/01 10:19:46;;;;;;;4.23;3.83;;;;;;;15.79;100.00;96059.19;5009431;28;104874;-60
2023/05/01 10:22:15;;;;;;;4.50;4.20;;;;;;;15.78;100.00;96057.59;5010035;28;104771;-60
2023/05/01 10:24:48;;;;;;;4.77;4.37;;;;;;;15.83;100.00;96057.53;5009711;28;101941;-60
2023/05/01 10:27:17;;;;;;;4.77;4.40;;;;;;;16.05;100.00;96057.72;5009109;28;103993;-60
2023/05/01 10:29:47;;;;;;;4.87;4.03;;;;;;;15.92;100.00;96056.56;5012318;28;105427;-60
2023/05/01 10:32:15;;;;;;;3.70;3.40;;;;;;;16.43;100.00;96059.25;5012311;28;105448;-60
2023/05/01 10:34:52;;;;;;;3.83;3.53;;;;;;;15.98;100.00;96055.38;5028651;28;105320;-60
2023/05/01 10:37:24;;;;;;;6.73;5.10;;;;;;;16.11;100.00;96053.84;5012513;28;103358;-60
2023/05/01 10:39:51;;;;;;;6.83;5.30;;;;;;;16.22;100.00;96052.59;5009069;28;105457;-60
2023/05/01 10:42:18;;;;;;;4.90;4.40;;;;;;;16.37;100.00;96049.69;5011492;28;105001;-60
2023/05/01 10:44:51;;;;;;;4.27;3.97;;;;;;;16.18;100.00;96052.41;5029158;28;101896;-60
2023/05/01 10:47:45;;;;;;;4.00;3.70;;;;;;;16.32;100.00;96041.72;5030769;27;102818;-60
2023/05/01 10:50:15;;;;;;;3.80;3.50;;;;;;;16.36;100.00;96038.13;5027306;27;105956;-60
2023/05/01 10:53:19;;;;;;;4.20;3.90;;;;;;;15.89;100.00;96045.63;5018151;28;101965;-60
2023/05/01 10:55:48;;;;;;;4.20;3.90;;;;;;;16.05;100.00;96033.56;5014843;27;102648;-60
2023/05/01 10:58:57;;;;;;;4.70;4.30;;;;;;;15.86;100.00;96049.69;5010125;28;101837;-60
2023/05/01 11:01:29;;;;;;;3.83;3.63;;;;;;;16.31;100.00;96038.25;5006982;28;104082;-60
2023/05/01 11:04:04;;;;;;;4.00;3.67;;;;;;;16.55;100.00;96040.78;5024577;28;103433;-60
2023/05/01 11:06:33;;;;;;;3.87;3.57;;;;;;;16.52;100.00;96030.66;5030634;28;101766;-60
2023/05/01 11:09:01;;;;;;;3.80;3.50;;;;;;;16.43;100.00;96032.41;5029640;27;103449;-60
2023/05/01 11:11:50;;;;;;;3.77;3.37;;;;;;;16.34;100.00;96036.84;5028272;28;104114;-60
2023/05/01 11:17:46;;;;;;;4.00;3.70;;;;;;;16.31;100.00;96037.44;5019517;27;102803;-60
2023/05/01 11:20:33;;;;;;;3.80;3.50;;;;;;;16.38;100.00;96035.16;5008800;28;102062;-60
2023/05/01 11:23:51;;;;;;;4.23;3.83;;;;;;;16.67;100.00;96036.53;5009202;28;103942;-60
2023/05/01 11:26:21;;;;;;;4.10;3.80;;;;;;;16.76;100.00;96034.75;5009665;28;102698;-60
2023/05/01 11:28:48;;;;;;;3.77;3.47;;;;;;;16.38;100.00;96040.53;5027256;28;102372;-60
2023/05/01 11:31:17;;;;;;;4.17;3.80;;;;;;;16.44;100.00;96031.31;5029140;28;105357;-60
2023/05/01 11:33:57;;;;;;;4.37;3.97;;;;;;;16.66;100.00;96032.25;5011413;28;105377;-60
2023/05/01 11:36:24;;;;;;;3.97;3.67;;;;;;;16.25;100.00;96030.56;5012104;28;102029;-60
2023/05/01 11:38:51;;;;;;;4.17;3.77;;;;;;;16.90;100.00;96021.34;5014810;28;105384;-60
2023/05/01 11:41:21;;;;;;;4.00;3.70;;;;;;;17.32;100.00;96021.00;5013573;28;101996;-60
2023/05/01 11:44:20;;;;;;;4.87;4.47;;;;;;;16.85;100.00;96022.22;5032269;28;104989;-60
2023/05/01 11:46:57;;;;;;;4.10;3.80;;;;;;;17.07;100.00;96016.16;5029743;28;105880;-60
2023/05/01 11:49:27;;;;;;;4.30;3.90;;;;;;;16.54;100.00;96023.09;5031970;28;102024;-60
2023/05/01 11:51:56;;;;;;;3.77;3.57;;;;;;;16.68;100.00;96022.00;5022575;28;104870;-60
2023/05/01 11:54:47;;;;;;;4.03;3.73;;;;;;;16.99;100.00;96014.16;5011253;28;105260;-60
2023/05/01 11:57:16;;;;;;;4.20;3.80;;;;;;;16.70;100.00;96022.53;5023793;28;101789;-60
2023/05/01 11:59:46;;;;;;;3.87;3.57;;;;;;;16.87;100.00;96014.69;5031745;28;105437;-60
2023/05/01 12:02:19;;;;;;;3.90;3.60;;;;;;;16.88;100.00;96018.13;5034455;27;102565;-60
2023/05/01 12:05:25;;;;;;;3.80;3.60;;;;;;;16.12;100.00;96025.94;5031965;28;104789;-60
2023/05/01 12:08:05;;;;;;;4.73;3.53;;;;;;;16.43;100.00;96022.50;5030891;28;105483;-60
2023/05/01 12:10:32;;;;;;;3.80;3.60;;;;;;;16.77;100.00;96027.50;5031753;28;102006;-61
2023/05/01 12:13:02;;;;;;;3.43;3.23;;;;;;;16.20;100.00;96020.72;5028045;28;103688;-60
2023/05/01 12:15:29;;;;;;;3.93;3.60;;;;;;;16.25;100.00;96030.56;5013073;28;103171;-60
2023/05/01 12:17:57;;;;;;;3.23;3.03;;;;;;;16.25;100.00;96022.53;5033088;27;101944;-60
2023/05/01 12:20:35;;;;;;;3.83;3.53;;;;;;;16.18;100.00;96019.44;5032187;27;102282;-60